• Join FlightAware (Why Join?)
  • Login
  • US Flag 
03:42AM EDT


 

Airport Tracker/Info


-or-


 

Live Flight TrackerFlight Track Log ✈ N691RC ✈ 09-Jul-2013 ✈ KTEB - KSAV

Flight Track Log - Related Links

Times and Time Zones

All times are in EDT time to prevent confusion due to time zone crossing. See the N691RC flight status page for this flight to view local times or setup timezone preferences in your user account.

Time Position Orientation Groundspeed Altitude Reporting Facility
EDT Latitude Longitude Course Direction KTS MPH feet Rate Location/Type
07:46AM 40.8333 -74.0833 252° West 193 222 900  Level New York TRACON
07:47AM 40.8167 -74.1500 252° West 202 232 1,700 2,160 Climbing New York TRACON
07:48AM 40.8167 -74.2333 270° West 252 290 5,100 2,160 Climbing New York TRACON
07:49AM 40.7667 -74.3000 225° Southwest 274 315 6,100 480 Climbing New York TRACON
07:50AM 40.7000 -74.3000 180° South 277 319 6,100  Level New York TRACON
07:51AM 40.6167 -74.2833 171° South 275 316 6,100  Level New York TRACON
07:52AM 40.5333 -74.2667 171° South 280 322 6,100  Level New York TRACON
07:53AM 40.4667 -74.2333 159° South 280 322 6,100 600 Level New York TRACON
07:55AM 40.3167 -74.1764 164° South 285 328 8,100 1,560 Climbing New York Center
07:56AM 40.2350 -74.1886 187° South 285 328 11,000 2,580 Climbing New York Center
07:57AM 40.1425 -74.2139 192° South 327 376 13,300 2,700 Climbing New York Center
07:58AM 40.0372 -74.2547 197° South 381 438 16,400 2,580 Climbing New York Center
07:59AM 39.9542 -74.3075 206° Southwest 409 471 18,600 2,820 Climbing New York Center
08:00AM 39.8450 -74.4072 215° Southwest 430 495 22,100 2,760 Climbing New York Center
08:01AM 39.7408 -74.5342 223° Southwest 465 535 24,000 720 Climbing New York Center
08:02AM 39.6206 -74.6917 225° Southwest 493 567 24,000  Level Washington Center
08:03AM 39.5297 -74.8114 225° Southwest 479 551 24,000 1,440 Level Washington Center
08:04AM 39.4408 -74.9278 225° Southwest 466 536 27,000 3,060 Climbing Washington Center
08:05AM 39.3517 -75.0442 225° Southwest 459 528 30,100 3,240 Climbing Washington Center
08:06AM 39.2500 -75.1333 214° Southwest 459 528 33,500 1,860 Climbing Washington Center
08:07AM 39.1294 -75.1850 198° South 450 518 34,000 660 Climbing Washington Center
08:08AM 39.0108 -75.2364 199° South 455 524 34,900 1,260 Climbing Washington Center
08:09AM 38.8836 -75.2878 197° South 461 531 36,500 2,160 Climbing Washington Center
08:10AM 38.7628 -75.3442 200° South 468 539 39,200 1,920 Climbing Washington Center
08:11AM 38.6483 -75.4003 201° Southwest 461 531 40,500 1,380 Climbing Washington Center
08:12AM 38.5381 -75.4856 211° Southwest 456 525 42,100 1,260 Climbing Washington Center
08:13AM 38.4339 -75.5836 216° Southwest 461 531 43,000 420 Climbing Washington Center
08:14AM 38.3211 -75.6792 214° Southwest 478 550 43,000  Level Washington Center
08:15AM 38.2000 -75.7714 211° Southwest 496 571 43,000  Level Washington Center
08:16AM 38.0831 -75.8714 214° Southwest 510 587 43,000  Level Washington Center
08:17AM 37.9681 -75.9736 215° Southwest 510 587 43,000  Level Washington Center
08:18AM 37.8489 -76.0731 213° Southwest 510 587 43,000  Level Washington Center
08:19AM 37.7297 -76.1719 213° Southwest 516 594 43,000  Level Washington Center
08:20AM 37.6122 -76.2708 214° Southwest 511 588 43,000  Level Washington Center
08:21AM 37.4908 -76.3692 213° Southwest 511 588 43,000  Level Washington Center
08:22AM 37.3733 -76.4672 214° Southwest 511 588 43,000  Level Washington Center
08:23AM 37.2536 -76.5650 213° Southwest 516 594 43,000  Level Washington Center
08:24AM 37.1317 -76.6653 213° Southwest 516 594 43,000  Level Washington Center
08:25AM 37.0119 -76.7625 213° Southwest 516 594 43,000  Level Washington Center
08:26AM 36.8961 -76.8619 214° Southwest 510 587 43,000  Level Washington Center
08:27AM 36.7783 -76.9586 213° Southwest 510 587 43,000  Level Washington Center
08:28AM 36.6625 -77.0600 215° Southwest 515 593 43,000  Level Washington Center
08:29AM 36.5483 -77.1692 218° Southwest 520 598 43,000  Level Washington Center
08:30AM 36.4342 -77.2778 217° Southwest 520 598 43,000  Level Washington Center
08:31AM 36.3222 -77.3811 217° Southwest 520 598 43,000  Level Washington Center
08:32AM 36.2036 -77.4967 218° Southwest 507 583 43,000  Level Washington Center
08:33AM 36.0892 -77.6019 217° Southwest 507 583 43,000  Level Washington Center
08:34AM 35.9767 -77.7044 216° Southwest 507 583 43,000  Level Washington Center
08:35AM 35.8583 -77.7986 213° Southwest 507 583 43,000  Level Washington Center
08:36AM 35.7397 -77.8925 213° Southwest 507 583 43,000  Level Washington Center
08:37AM 35.6272 -77.9889 215° Southwest 513 590 43,000  Level Washington Center
08:38AM 35.5164 -78.0953 218° Southwest 508 585 43,000  Level Washington Center
08:39AM 35.4058 -78.1989 217° Southwest 508 585 43,000  Level Washington Center
08:40AM 35.2969 -78.3047 218° Southwest 508 585 43,000  Level Washington Center
08:41AM 35.1861 -78.4131 219° Southwest 513 590 43,000  Level Washington Center
08:42AM 35.0792 -78.5183 219° Southwest 513 590 43,000  Level Washington Center
08:43AM 34.9700 -78.6233 218° Southwest 508 585 43,000  Level Washington Center
08:44AM 34.8589 -78.7281 218° Southwest 508 585 43,000  Level Washington Center
08:46AM 34.7008 -78.8775 218° Southwest 518 596 43,000  Level Jacksonville Center
08:47AM 34.5894 -78.9811 217° Southwest 518 596 43,000 -1,380 Level Jacksonville Center
08:48AM 34.4800 -79.0917 220° Southwest 518 596 40,300 -3,300 Descending Jacksonville Center
08:49AM 34.3683 -79.1947 217° Southwest 518 596 36,400 -8,160 Descending Jacksonville Center
08:50AM 34.2589 -79.2975 218° Southwest 513 590 24,000 -4,380 Descending Jacksonville Center
08:51AM 34.1428 -79.4025 217° Southwest 519 597 27,700 540 Climbing Jacksonville Center
08:52AM 34.0411 -79.4944 217° Southwest 503 579 25,100 -2,400 Descending Jacksonville Center
08:53AM 33.9436 -79.5933 220° Southwest 480 552 23,000 -1,080 Descending Jacksonville Center
08:54AM 33.8478 -79.6894 220° Southwest 468 539 23,000  Level Jacksonville Center
08:55AM 33.7503 -79.7853 219° Southwest 468 539 23,000  Level Jacksonville Center
08:56AM 33.6503 -79.8811 219° Southwest 463 533 23,000 -840 Level Jacksonville Center
08:57AM 33.5522 -79.9767 219° Southwest 463 533 21,400 -2,280 Descending Jacksonville Center
08:58AM 33.4606 -80.0669 219° Southwest 457 526 18,500 -2,700 Descending Jacksonville Center
08:59AM 33.3725 -80.1517 219° Southwest 440 506 16,000 -2,700 Descending Jacksonville Center
09:00AM 33.2867 -80.2339 219° Southwest 415 478 13,200 -2,520 Descending Jacksonville Center
09:01AM 33.1967 -80.3233 220° Southwest 399 459 11,000 -1,140 Descending Jacksonville Center
09:02AM 33.1128 -80.4028 218° Southwest 392 451 11,000 -60 Level Jacksonville Center
09:03AM 33.0369 -80.4767 219° Southwest 392 451 10,900 -60 Descending Jacksonville Center
09:04AM 32.9550 -80.5531 218° Southwest 392 451 10,900  Level Jacksonville Center
09:05AM 32.8728 -80.6319 219° Southwest 392 451 10,900 -540 Level Jacksonville Center
09:06AM 32.7928 -80.7056 218° Southwest 387 445 9,900 -1,320 Descending Jacksonville Center
09:07AM 32.7311 -80.7664 220° Southwest 341 392 8,300 -960 Descending Jacksonville Center
09:08AM 32.6717 -80.8294 222° Southwest 293 337 8,000 -180 Descending Jacksonville Center
09:09AM 32.6039 -80.8925 218° Southwest 284 327 8,000  Level Jacksonville Center
09:10AM 32.5461 -80.9456 218° Southwest 284 327 8,000 -60 Level Jacksonville Center
09:11AM 32.4783 -81.0086 218° Southwest 290 334 7,900 -900 Descending Jacksonville Center
09:12AM 32.4186 -81.0642 218° Southwest 290 334 6,200 -1,680 Descending Jacksonville Center
09:13AM 32.3586 -81.1194 218° Southwest 290 334 4,600 -1,140 Descending Jacksonville Center
09:14AM 32.3031 -81.1719 219° Southwest 276 318 4,000 -300 Descending Jacksonville Center
09:15AM 32.2639 -81.2144 223° Southwest 236 272 4,000 -660 Level Jacksonville Center
09:16AM 32.2442 -81.2861 252° West 223 257 2,700 -1,020 Descending Jacksonville Center
09:17AM 32.2303 -81.3503 256° West 199 229 2,000 -360 Descending Jacksonville Center
09:18AM 32.2036 -81.3875 230° Southwest 170 196 2,000  Level Jacksonville Center
09:19AM 32.1594 -81.3758 167° South 144 166 2,000 -60 Level Jacksonville Center
09:20AM 32.1339 -81.3347 126° Southeast 171 197 1,900 -540 Descending Jacksonville Center
09:21AM 32.1292 -81.2833 96° East 146 168 1,000 -840 Descending Jacksonville Center
09:22AM 32.1286 -81.2417 91° East 133 153 300 -420 Descending Jacksonville Center
09:23AM 32.1261 -81.2047 95° East 133 153 200 5,340 Descending Jacksonville Center
09:24AM 32.1256 -81.1606 91° East 133 153 11,000 10,800 Climbing Jacksonville Center